Time;durP1;ratioP1;P1;durP2;ratioP2;P2;SDS_P1;SDS_P2;PMS_P1;PMS_P2;Temp;Humidity;BMP_temperature;BMP_pressure;BME280_temperature;BME280_humidity;BME280_pressure;Samples;Min_cycle;Max_cycle;Signal;HPM_P1;HPM_P2
2022/01/19 00:00:31;;;;;;;5.63;2.73;;;6.40;99.90;;;;;;5099261;28;20461;-81
2022/01/19 00:03:01;;;;;;;2.73;2.50;;;6.40;99.90;;;;;;5107601;28;20536;-83
2022/01/19 00:05:30;;;;;;;3.33;2.20;;;6.40;99.90;;;;;;5109725;28;20477;-81
2022/01/19 00:07:58;;;;;;;3.38;2.75;;;6.50;99.90;;;;;;5101489;28;20453;-81
2022/01/19 00:10:28;;;;;;;4.40;2.90;;;6.30;99.90;;;;;;5107053;28;20222;-81
2022/01/19 00:12:57;;;;;;;6.13;2.97;;;6.30;99.90;;;;;;5113299;28;20453;-82
2022/01/19 00:15:27;;;;;;;6.30;3.47;;;6.30;99.90;;;;;;5112901;28;20477;-83
2022/01/19 00:17:57;;;;;;;3.53;3.07;;;6.20;99.90;;;;;;5113085;28;20436;-82
2022/01/19 00:20:28;;;;;;;2.07;1.87;;;6.10;99.90;;;;;;5107603;28;20457;-82
2022/01/19 00:22:57;;;;;;;3.40;2.63;;;6.10;99.90;;;;;;5112775;28;20449;-83
2022/01/19 00:25:25;;;;;;;3.47;2.67;;;6.10;99.90;;;;;;5106203;28;20481;-82
2022/01/19 00:27:54;;;;;;;4.67;3.20;;;6.10;99.90;;;;;;5111885;28;20578;-83
2022/01/19 00:30:22;;;;;;;3.17;2.40;;;6.10;99.90;;;;;;5108089;28;20469;-82
2022/01/19 00:32:50;;;;;;;5.33;2.63;;;6.10;99.90;;;;;;5105633;28;20983;-82
2022/01/19 00:35:18;;;;;;;3.33;2.67;;;6.00;99.90;;;;;;5108876;28;20469;-82
2022/01/19 00:37:48;;;;;;;2.47;2.23;;;5.90;99.90;;;;;;5105304;28;20196;-82
2022/01/19 00:40:17;;;;;;;5.82;2.42;;;5.90;99.90;;;;;;5106510;28;20897;-82
2022/01/19 00:42:46;;;;;;;4.90;4.00;;;5.90;99.90;;;;;;5111591;28;20617;-81
2022/01/19 00:45:15;;;;;;;4.30;3.90;;;5.90;99.90;;;;;;5103226;28;20215;-82
2022/01/19 00:47:44;;;;;;;4.22;3.58;;;6.00;99.90;;;;;;5122496;27;20207;-82
2022/01/19 00:50:14;;;;;;;5.97;3.70;;;6.00;99.90;;;;;;5107469;28;20194;-81
2022/01/19 00:52:43;;;;;;;7.32;3.72;;;6.00;99.90;;;;;;5113324;28;20199;-82
2022/01/19 00:55:13;;;;;;;5.50;3.90;;;6.00;99.90;;;;;;5107679;28;20374;-82
2022/01/19 00:57:42;;;;;;;8.70;4.40;;;5.90;99.90;;;;;;5107026;28;20463;-82
2022/01/19 01:00:13;;;;;;;5.47;4.60;;;6.00;99.90;;;;;;5110709;28;20948;-82
2022/01/19 01:02:41;;;;;;;5.83;4.23;;;5.90;99.90;;;;;;5111829;28;20455;-81
2022/01/19 01:05:10;;;;;;;4.82;3.88;;;5.90;99.90;;;;;;5103055;28;20468;-82
2022/01/19 01:07:40;;;;;;;4.53;4.05;;;5.90;99.90;;;;;;5104996;28;20195;-81
2022/01/19 01:10:10;;;;;;;4.50;3.30;;;5.90;99.90;;;;;;5106444;28;20199;-81
2022/01/19 01:12:46;;;;;;;4.55;4.03;;;5.90;99.90;;;;;;5108921;28;20452;-82
2022/01/19 01:15:30;;;;;;;5.38;4.15;;;6.00;99.90;;;;;;5108756;28;20229;-82
2022/01/19 01:18:19;;;;;;;7.40;4.20;;;5.90;99.90;;;;;;5110094;28;20203;-82
2022/01/19 01:20:51;;;;;;;5.32;3.78;;;5.90;99.90;;;;;;5105643;28;20464;-82
2022/01/19 01:23:23;;;;;;;5.43;3.30;;;5.90;99.90;;;;;;5108177;28;20199;-82
2022/01/19 01:25:52;;;;;;;8.10;4.40;;;5.90;99.90;;;;;;5105700;28;20477;-82
2022/01/19 01:28:22;;;;;;;5.97;3.42;;;6.10;99.90;;;;;;5108415;28;20517;-82
2022/01/19 01:30:51;;;;;;;6.53;3.85;;;6.10;99.90;;;;;;5105158;28;20211;-82
2022/01/19 01:33:20;;;;;;;4.63;3.35;;;5.70;99.90;;;;;;5102166;28;20271;-81
2022/01/19 01:35:48;;;;;;;4.32;3.85;;;5.70;99.90;;;;;;5107922;28;20287;-81
2022/01/19 01:38:17;;;;;;;3.88;3.45;;;5.80;99.90;;;;;;5107832;28;20191;-81
2022/01/19 01:41:05;;;;;;;6.30;4.07;;;5.80;99.90;;;;;;5097182;28;20199;-82
2022/01/19 01:43:35;;;;;;;4.97;3.23;;;5.90;99.90;;;;;;5107432;28;20278;-80
2022/01/19 01:46:07;;;;;;;6.07;3.88;;;6.10;99.90;;;;;;5106432;28;20480;-81
2022/01/19 01:48:42;;;;;;;6.63;3.60;;;6.10;99.90;;;;;;5096813;28;20203;-82
2022/01/19 01:53:56;;;;;;;5.30;3.83;;;6.10;99.90;;;;;;5072559;28;20671;-81
2022/01/19 01:56:24;;;;;;;6.37;3.80;;;6.20;99.90;;;;;;5106289;28;20469;-81
2022/01/19 01:58:54;;;;;;;7.20;3.67;;;6.10;99.90;;;;;;5098357;28;21371;-81
2022/01/19 02:01:22;;;;;;;9.57;3.77;;;6.20;99.90;;;;;;5101037;28;20460;-84
2022/01/19 02:03:52;;;;;;;6.85;4.25;;;6.30;99.90;;;;;;5112614;28;20472;-83
2022/01/19 02:06:32;;;;;;;11.47;4.93;;;6.10;99.90;;;;;;5109669;28;20219;-84
2022/01/19 02:09:07;;;;;;;7.47;4.85;;;6.10;99.90;;;;;;5106659;28;20450;-82
2022/01/19 02:23:12;;;;;;;12.30;4.90;;;6.10;99.90;;;;;;5107174;28;20282;-82
2022/01/19 02:25:43;;;;;;;5.47;3.92;;;6.10;99.90;;;;;;5103533;28;20208;-82
2022/01/19 02:42:22;;;;;;;5.15;3.72;;;6.00;99.90;;;;;;5081698;28;20462;-82
2022/01/19 02:50:22;;;;;;;5.43;3.38;;;5.90;99.90;;;;;;5111905;27;20250;-83
2022/01/19 02:52:52;;;;;;;8.85;3.60;;;5.80;99.90;;;;;;5103604;28;20227;-81
2022/01/19 02:55:20;;;;;;;9.48;3.58;;;5.90;99.90;;;;;;5105509;28;20234;-80
2022/01/19 02:57:48;;;;;;;4.47;2.75;;;5.90;99.90;;;;;;5104788;28;20212;-82
2022/01/19 03:08:46;;;;;;;7.63;3.85;;;5.80;99.90;;;;;;5111701;28;20264;-82
2022/01/19 03:11:16;;;;;;;11.40;3.10;;;5.80;99.90;;;;;;5111912;28;20268;-82
2022/01/19 03:13:45;;;;;;;7.05;3.67;;;5.90;99.90;;;;;;5106533;28;20202;-82
2022/01/19 03:16:13;;;;;;;6.65;3.67;;;5.90;99.90;;;;;;5105667;28;20215;-81
2022/01/19 03:18:42;;;;;;;6.03;3.80;;;5.80;99.90;;;;;;5111788;28;20192;-82
2022/01/19 03:21:11;;;;;;;4.30;2.78;;;5.90;99.90;;;;;;5111324;27;20452;-81
2022/01/19 03:23:40;;;;;;;6.40;3.70;;;5.80;99.90;;;;;;5102758;28;20541;-82
2022/01/19 03:26:09;;;;;;;9.77;3.75;;;5.90;99.90;;;;;;5101846;28;21003;-81
2022/01/19 03:28:37;;;;;;;4.65;2.97;;;5.80;99.90;;;;;;5112878;28;20202;-81
2022/01/19 03:31:06;;;;;;;4.25;3.45;;;5.80;99.90;;;;;;5109557;28;20202;-82
2022/01/19 03:33:35;;;;;;;6.35;3.03;;;5.80;99.90;;;;;;5113270;28;20222;-82
2022/01/19 03:36:04;;;;;;;5.45;3.22;;;5.90;99.90;;;;;;5111696;28;20221;-82
2022/01/19 03:38:32;;;;;;;5.75;3.50;;;5.70;99.90;;;;;;5109017;28;20704;-82
2022/01/19 03:41:02;;;;;;;6.23;2.37;;;5.70;99.90;;;;;;5107174;28;20260;-81
2022/01/19 03:43:30;;;;;;;6.70;3.67;;;5.70;99.90;;;;;;5107086;28;20504;-81
2022/01/19 03:46:00;;;;;;;2.50;2.30;;;5.70;99.90;;;;;;5107617;28;20276;-83
2022/01/19 03:48:38;;;;;;;3.75;2.45;;;5.70;99.90;;;;;;5111168;28;20278;-83
2022/01/19 03:51:07;;;;;;;4.35;3.33;;;5.70;99.90;;;;;;5109876;28;20218;-80
2022/01/19 03:53:35;;;;;;;3.85;3.53;;;5.70;99.90;;;;;;5110851;28;20567;-82
2022/01/19 03:56:05;;;;;;;7.90;3.00;;;5.80;99.90;;;;;;5102936;28;20227;-82
2022/01/19 03:58:35;;;;;;;3.83;3.45;;;5.80;99.90;;;;;;5106152;28;20880;-82
2022/01/19 04:01:05;;;;;;;3.38;2.97;;;5.80;99.90;;;;;;5103323;28;20621;-81
2022/01/19 04:03:55;;;;;;;3.20;2.75;;;5.70;99.90;;;;;;5104025;28;20192;-82
2022/01/19 04:06:27;;;;;;;5.22;2.88;;;6.00;99.90;;;;;;5105970;28;20227;-82
2022/01/19 04:08:55;;;;;;;3.93;3.20;;;5.60;99.90;;;;;;5106605;28;20195;-82
2022/01/19 04:11:26;;;;;;;2.92;2.60;;;5.60;99.90;;;;;;5109301;28;20456;-82
2022/01/19 04:14:21;;;;;;;2.63;2.42;;;5.50;99.90;;;;;;5109719;28;20206;-82
2022/01/19 04:16:50;;;;;;;8.70;2.90;;;5.40;99.90;;;;;;5110695;28;20226;-83
2022/01/19 04:19:30;;;;;;;8.43;3.50;;;5.40;99.90;;;;;;5109421;28;20214;-83
2022/01/19 04:22:01;;;;;;;5.20;3.28;;;5.40;99.90;;;;;;5100777;28;20198;-81
2022/01/19 04:24:30;;;;;;;5.47;4.10;;;5.40;99.90;;;;;;5111814;28;20274;-81
2022/01/19 04:29:52;;;;;;;8.57;3.13;;;5.30;99.90;;;;;;5110825;28;20187;-81
2022/01/19 04:32:25;;;;;;;6.05;3.75;;;5.30;99.90;;;;;;5103477;28;20203;-81
2022/01/19 04:34:53;;;;;;;5.60;3.10;;;5.40;99.90;;;;;;5102448;28;20221;-82
2022/01/19 04:37:38;;;;;;;5.47;2.90;;;5.20;99.90;;;;;;5112963;28;20209;-81
2022/01/19 04:46:04;;;;;;;6.25;3.92;;;5.20;99.90;;;;;;5106548;27;20250;-81
2022/01/19 05:02:42;;;;;;;4.38;3.47;;;5.40;99.90;;;;;;5100752;28;20222;-80
2022/01/19 05:05:17;;;;;;;7.68;4.88;;;5.40;99.90;;;;;;5106792;28;20229;-82
2022/01/19 05:07:55;;;;;;;7.25;3.60;;;5.40;99.90;;;;;;5109178;28;20213;-81
2022/01/19 05:13:27;;;;;;;3.25;2.65;;;5.40;99.90;;;;;;5052719;28;20211;-80
2022/01/19 05:15:56;;;;;;;6.93;3.45;;;5.40;99.90;;;;;;5046652;28;20219;-82
2022/01/19 05:18:25;;;;;;;5.80;3.80;;;5.50;99.90;;;;;;5071375;28;20205;-80
2022/01/19 05:20:53;;;;;;;5.35;3.95;;;5.50;99.90;;;;;;5108315;28;20199;-81
2022/01/19 05:23:21;;;;;;;8.35;3.53;;;5.70;99.90;;;;;;5105832;28;20206;-81
2022/01/19 05:25:50;;;;;;;8.85;4.07;;;5.50;99.90;;;;;;5110545;28;20306;-81
2022/01/19 05:28:24;;;;;;;5.47;3.75;;;5.50;99.90;;;;;;5102771;28;20201;-81
2022/01/19 05:30:52;;;;;;;11.15;3.10;;;5.50;99.90;;;;;;5107336;28;20187;-82
2022/01/19 05:33:22;;;;;;;7.80;4.03;;;5.50;99.90;;;;;;5102671;28;20720;-81
2022/01/19 05:35:50;;;;;;;5.23;3.70;;;5.30;99.90;;;;;;5104285;28;20257;-80
2022/01/19 05:38:18;;;;;;;5.05;3.50;;;5.30;99.90;;;;;;5104701;28;20452;-82
2022/01/19 05:40:46;;;;;;;5.82;3.90;;;5.40;99.90;;;;;;5103616;28;20198;-82
2022/01/19 05:43:15;;;;;;;7.05;3.83;;;5.40;99.90;;;;;;5110619;28;20202;-82
2022/01/19 05:45:43;;;;;;;5.95;3.55;;;5.50;99.90;;;;;;5107809;28;20231;-82
2022/01/19 05:48:11;;;;;;;9.68;2.90;;;5.40;99.90;;;;;;5100976;28;20210;-81
2022/01/19 05:50:41;;;;;;;6.20;3.85;;;5.60;99.90;;;;;;5102193;28;20203;-83
2022/01/19 05:53:09;;;;;;;5.32;3.92;;;5.30;99.90;;;;;;5108330;28;20210;-82
2022/01/19 05:55:37;;;;;;;5.80;3.63;;;5.20;99.90;;;;;;5099892;28;20242;-82
2022/01/19 05:58:06;;;;;;;6.90;4.25;;;5.00;99.90;;;;;;5108933;28;20550;-83
2022/01/19 06:00:34;;;;;;;8.25;5.47;;;4.90;99.90;;;;;;5108104;28;20415;-83
2022/01/19 06:03:03;;;;;;;5.85;4.25;;;4.90;99.90;;;;;;5112070;28;20210;-82
2022/01/19 06:05:32;;;;;;;4.28;3.85;;;5.00;99.90;;;;;;5112213;28;20285;-83
2022/01/19 06:08:28;;;;;;;6.53;3.92;;;5.00;99.90;;;;;;5115027;28;20191;-83
2022/01/19 06:10:57;;;;;;;6.65;3.80;;;5.00;99.90;;;;;;5101893;28;20193;-83
2022/01/19 06:13:26;;;;;;;6.38;4.60;;;5.00;99.90;;;;;;5114200;28;20205;-82
2022/01/19 06:15:55;;;;;;;6.40;4.22;;;4.70;99.90;;;;;;5111607;28;20223;-83
2022/01/19 06:18:23;;;;;;;6.70;3.80;;;4.70;99.90;;;;;;5111496;28;20239;-82
2022/01/19 06:20:52;;;;;;;8.43;3.40;;;5.00;99.90;;;;;;5115724;28;20210;-84
2022/01/19 06:23:22;;;;;;;4.75;4.25;;;4.60;99.90;;;;;;5115460;28;20201;-83
2022/01/19 06:25:50;;;;;;;10.38;4.35;;;5.00;99.90;;;;;;5110394;27;20269;-82
2022/01/19 06:28:18;;;;;;;8.27;4.55;;;4.60;99.90;;;;;;5115242;28;20227;-83
2022/01/19 06:30:46;;;;;;;6.80;5.07;;;4.40;99.90;;;;;;5110177;28;20523;-79
2022/01/19 06:33:15;;;;;;;6.68;4.43;;;4.50;99.90;;;;;;5108193;27;21006;-81
2022/01/19 06:35:44;;;;;;;7.75;5.00;;;4.60;99.90;;;;;;5101446;28;20221;-83
2022/01/19 06:38:12;;;;;;;6.18;4.45;;;4.60;99.90;;;;;;5112128;28;20225;-82
2022/01/19 06:40:41;;;;;;;6.43;5.50;;;5.00;99.90;;;;;;5110328;28;20203;-83
2022/01/19 06:43:10;;;;;;;7.15;3.90;;;4.50;99.90;;;;;;5115110;27;20209;-83
2022/01/19 06:45:38;;;;;;;6.70;5.70;;;4.60;99.90;;;;;;5112192;28;20211;-81
2022/01/19 06:48:07;;;;;;;9.02;4.95;;;4.50;99.90;;;;;;5103678;28;20215;-82
2022/01/19 06:50:35;;;;;;;8.23;4.90;;;4.60;99.90;;;;;;5093893;28;20211;-82
2022/01/19 06:53:03;;;;;;;7.95;5.10;;;4.70;99.90;;;;;;5111728;28;20196;-82
2022/01/19 06:55:31;;;;;;;7.32;4.80;;;4.60;99.90;;;;;;5114322;28;20238;-82
2022/01/19 06:58:01;;;;;;;8.82;5.22;;;4.70;99.90;;;;;;5102833;28;20280;-80
2022/01/19 07:00:29;;;;;;;6.13;4.70;;;4.80;99.90;;;;;;5109236;28;20210;-80
2022/01/19 07:02:58;;;;;;;6.47;4.72;;;4.90;99.90;;;;;;5106714;28;20198;-80
2022/01/19 07:05:26;;;;;;;7.93;5.72;;;5.00;99.90;;;;;;5105115;28;20756;-80
2022/01/19 07:07:56;;;;;;;6.57;4.45;;;5.00;99.90;;;;;;5108789;28;20552;-80
2022/01/19 07:10:31;;;;;;;6.22;4.35;;;4.90;99.90;;;;;;5107089;27;20557;-79
2022/01/19 07:13:01;;;;;;;7.55;5.65;;;5.30;99.90;;;;;;5101153;28;20197;-78
2022/01/19 07:15:29;;;;;;;8.98;5.47;;;5.10;99.90;;;;;;5108761;28;20230;-79
2022/01/19 07:17:58;;;;;;;8.45;5.15;;;4.90;99.90;;;;;;5107192;27;20213;-80
2022/01/19 07:20:26;;;;;;;8.57;5.25;;;4.70;99.90;;;;;;5106877;28;20205;-79
2022/01/19 07:22:56;;;;;;;8.00;4.80;;;4.80;99.90;;;;;;5104405;28;20191;-79
2022/01/19 07:25:24;;;;;;;8.45;6.28;;;4.80;99.90;;;;;;5102829;28;21954;-80
2022/01/19 07:27:53;;;;;;;7.82;5.10;;;4.90;99.90;;;;;;5100687;28;20198;-81
2022/01/19 07:30:22;;;;;;;8.10;6.00;;;5.00;99.90;;;;;;5106391;28;20211;-80
2022/01/19 07:32:51;;;;;;;7.75;5.97;;;4.90;99.90;;;;;;5099111;28;20210;-80
2022/01/19 07:35:20;;;;;;;11.73;6.22;;;4.80;99.90;;;;;;5101985;27;20232;-80
2022/01/19 07:37:48;;;;;;;9.57;5.90;;;4.80;99.90;;;;;;5106076;28;20771;-81
2022/01/19 07:40:16;;;;;;;7.88;5.13;;;4.80;99.90;;;;;;5102288;28;20203;-81
2022/01/19 07:42:44;;;;;;;9.50;6.75;;;4.90;99.90;;;;;;5102002;28;21176;-80
2022/01/19 07:45:13;;;;;;;9.25;5.97;;;4.80;99.90;;;;;;5107021;28;20285;-80
2022/01/19 07:47:42;;;;;;;9.73;5.90;;;4.90;99.90;;;;;;5105192;27;20188;-81
2022/01/19 07:50:11;;;;;;;10.05;6.40;;;5.00;99.90;;;;;;5108928;28;20200;-79
2022/01/19 07:52:39;;;;;;;10.43;6.28;;;5.00;99.90;;;;;;5109695;28;20202;-80
2022/01/19 07:55:08;;;;;;;7.38;5.78;;;5.10;99.90;;;;;;5109873;28;20673;-79
2022/01/19 07:57:37;;;;;;;10.25;7.00;;;5.10;99.90;;;;;;5100502;28;20275;-79
2022/01/19 08:00:08;;;;;;;8.02;6.13;;;5.10;99.90;;;;;;5108675;28;20688;-80
2022/01/19 08:02:36;;;;;;;8.70;5.25;;;5.20;99.90;;;;;;5085322;28;20191;-79
2022/01/19 08:05:07;;;;;;;7.82;5.57;;;5.20;99.90;;;;;;5100837;27;20312;-80
2022/01/19 08:07:35;;;;;;;11.40;5.68;;;5.30;99.90;;;;;;5108617;28;20322;-80
2022/01/19 08:10:06;;;;;;;10.60;6.20;;;5.30;99.90;;;;;;5109386;28;20199;-80
2022/01/19 08:12:34;;;;;;;9.27;6.07;;;5.40;99.90;;;;;;5107820;28;20523;-81
2022/01/19 08:15:03;;;;;;;10.15;6.07;;;5.50;99.90;;;;;;5113911;28;20227;-80
2022/01/19 08:17:32;;;;;;;13.23;6.45;;;5.50;99.90;;;;;;5108950;28;20212;-79
2022/01/19 08:20:00;;;;;;;9.25;6.60;;;5.60;99.90;;;;;;5101675;28;20667;-82
2022/01/19 08:22:30;;;;;;;9.07;6.35;;;5.60;99.90;;;;;;5111420;28;20191;-81
2022/01/19 08:24:58;;;;;;;7.63;6.50;;;5.70;99.90;;;;;;5107360;28;20251;-81
2022/01/19 08:27:26;;;;;;;12.60;7.65;;;5.80;99.90;;;;;;5096923;28;20279;-81
2022/01/19 08:29:55;;;;;;;8.63;6.40;;;5.80;99.90;;;;;;5104037;28;20190;-80
2022/01/19 08:32:23;;;;;;;8.77;6.43;;;5.90;99.90;;;;;;5109446;28;20462;-83
2022/01/19 08:35:01;;;;;;;9.30;5.80;;;6.00;99.90;;;;;;5105440;28;20480;-79
2022/01/19 08:37:30;;;;;;;7.45;5.82;;;6.00;99.90;;;;;;5106586;28;20743;-81
2022/01/19 08:39:59;;;;;;;6.60;5.30;;;6.00;99.90;;;;;;5105802;27;20196;-80
2022/01/19 08:42:28;;;;;;;11.70;7.20;;;5.90;99.90;;;;;;5102776;28;20449;-81
2022/01/19 08:44:57;;;;;;;8.95;6.25;;;5.80;99.90;;;;;;5106259;28;20574;-80
2022/01/19 08:47:25;;;;;;;11.43;7.18;;;5.80;99.90;;;;;;5105722;28;20230;-80
2022/01/19 08:49:55;;;;;;;9.80;5.30;;;5.90;99.90;;;;;;5101890;27;20199;-81
2022/01/19 08:52:24;;;;;;;11.13;7.10;;;5.90;99.90;;;;;;5108039;27;20217;-81
2022/01/19 08:54:56;;;;;;;9.95;6.50;;;6.00;99.90;;;;;;5101418;27;20285;-79
2022/01/19 08:57:25;;;;;;;7.57;5.85;;;6.20;99.90;;;;;;5106536;28;20199;-80
2022/01/19 08:59:53;;;;;;;12.10;5.77;;;5.90;99.90;;;;;;5104753;28;20920;-80
2022/01/19 09:02:22;;;;;;;8.68;6.68;;;5.90;99.90;;;;;;5102504;28;21068;-80
2022/01/19 09:04:51;;;;;;;9.23;5.70;;;5.70;99.90;;;;;;5102107;28;20322;-80
2022/01/19 09:07:20;;;;;;;8.52;6.07;;;5.70;99.90;;;;;;5104097;28;20195;-80
2022/01/19 09:09:48;;;;;;;11.70;6.32;;;5.80;99.90;;;;;;5109004;28;20237;-80
2022/01/19 09:12:18;;;;;;;7.03;5.63;;;6.00;99.90;;;;;;5108805;28;20184;-81
2022/01/19 09:14:46;;;;;;;10.57;5.50;;;6.00;99.90;;;;;;5115154;27;20231;-81
2022/01/19 09:17:15;;;;;;;8.80;5.93;;;6.10;99.90;;;;;;5106939;28;20294;-80
2022/01/19 09:19:43;;;;;;;9.57;6.88;;;6.30;99.90;;;;;;5103371;28;20446;-80
2022/01/19 09:22:12;;;;;;;8.77;6.57;;;6.30;99.90;;;;;;5100442;28;20197;-81
2022/01/19 09:24:42;;;;;;;6.13;5.50;;;6.40;99.90;;;;;;5104569;28;20229;-80
2022/01/19 09:27:11;;;;;;;7.85;5.78;;;6.40;99.90;;;;;;5103568;28;20203;-80
2022/01/19 09:29:42;;;;;;;8.40;5.85;;;6.40;99.90;;;;;;5108533;28;20195;-80
2022/01/19 09:32:11;;;;;;;9.82;5.70;;;6.50;99.90;;;;;;5098389;28;20211;-80
2022/01/19 09:34:42;;;;;;;7.47;5.43;;;6.60;99.90;;;;;;5111839;28;20219;-78
2022/01/19 09:37:11;;;;;;;6.93;5.10;;;6.80;99.90;;;;;;5104076;28;20207;-80
2022/01/19 09:39:40;;;;;;;9.52;6.78;;;6.80;99.90;;;;;;5101689;28;20779;-79
2022/01/19 09:42:09;;;;;;;8.60;5.60;;;6.70;99.90;;;;;;5106864;28;20203;-79
2022/01/19 09:44:37;;;;;;;12.57;7.18;;;6.80;99.90;;;;;;5103076;28;20461;-81
2022/01/19 09:47:08;;;;;;;10.17;6.00;;;6.90;99.90;;;;;;5108985;28;20199;-80
2022/01/19 09:49:36;;;;;;;9.73;6.40;;;7.00;99.90;;;;;;5108100;28;20456;-81
2022/01/19 09:52:05;;;;;;;6.13;5.10;;;7.20;99.90;;;;;;5109134;28;20452;-80
2022/01/19 09:54:34;;;;;;;7.40;4.60;;;7.60;99.90;;;;;;5111527;28;20804;-81
2022/01/19 09:57:03;;;;;;;8.70;5.60;;;7.90;99.90;;;;;;5104536;27;20445;-81
2022/01/19 09:59:35;;;;;;;6.83;4.87;;;8.30;99.90;;;;;;5108052;27;20585;-80
2022/01/19 10:02:05;;;;;;;6.67;4.93;;;8.70;99.90;;;;;;5110424;27;20478;-80
2022/01/19 10:04:38;;;;;;;7.37;4.27;;;9.00;99.90;;;;;;5108740;27;20456;-81
2022/01/19 10:07:11;;;;;;;7.70;4.70;;;9.30;99.90;;;;;;5111710;28;20983;-81
2022/01/19 10:09:50;;;;;;;6.03;4.33;;;9.60;99.90;;;;;;5107777;27;20448;-82
2022/01/19 10:18:17;;;;;;;8.13;5.70;;;10.70;99.90;;;;;;5055838;28;20493;-83
2022/01/19 10:21:07;;;;;;;7.53;5.30;;;10.90;99.90;;;;;;5084934;28;20487;-83
2022/01/19 10:23:38;;;;;;;7.17;5.20;;;11.10;99.90;;;;;;5110404;27;20465;-82
2022/01/19 10:26:09;;;;;;;5.73;4.20;;;11.10;99.90;;;;;;5123116;27;20567;-84
2022/01/19 10:29:00;;;;;;;8.33;4.90;;;11.30;99.90;;;;;;5112554;28;20445;-82
2022/01/19 10:31:30;;;;;;;5.53;4.37;;;11.40;99.90;;;;;;5108464;28;20465;-84
2022/01/19 10:34:17;;;;;;;8.67;4.83;;;11.50;99.90;;;;;;5109737;28;20453;-83
2022/01/19 10:36:48;;;;;;;5.70;4.30;;;11.60;99.90;;;;;;5111534;27;20469;-83
2022/01/19 10:39:19;;;;;;;6.87;5.03;;;11.70;99.90;;;;;;5112449;27;20482;-83
2022/01/19 10:42:01;;;;;;;7.53;4.57;;;12.00;99.90;;;;;;5112507;27;20454;-82
2022/01/19 10:44:32;;;;;;;6.70;4.07;;;11.70;99.90;;;;;;5110096;27;20442;-81
2022/01/19 10:47:39;;;;;;;6.40;4.07;;;11.80;99.90;;;;;;5106043;28;20443;-81
2022/01/19 10:50:08;;;;;;;4.83;4.33;;;11.90;99.90;;;;;;5122526;27;20460;-81
2022/01/19 10:52:40;;;;;;;4.43;3.80;;;12.10;99.90;;;;;;5114956;27;21207;-83
2022/01/19 10:55:11;;;;;;;5.17;3.70;;;12.20;99.90;;;;;;5109982;28;20917;-83
2022/01/19 10:57:42;;;;;;;5.27;3.90;;;12.40;99.90;;;;;;5103804;27;20469;-83
2022/01/19 11:00:16;;;;;;;5.07;3.13;;;12.70;99.90;;;;;;5106383;27;20483;-80
2022/01/19 11:02:45;;;;;;;4.07;3.40;;;12.80;99.90;;;;;;5100696;27;20896;-79
2022/01/19 11:05:15;;;;;;;3.87;2.80;;;12.90;99.90;;;;;;5107867;28;20472;-79
2022/01/19 11:07:45;;;;;;;5.43;3.30;;;12.80;99.90;;;;;;5109558;28;20878;-83
2022/01/19 11:10:17;;;;;;;4.93;3.60;;;12.80;99.90;;;;;;5113630;27;20442;-83
2022/01/19 11:12:48;;;;;;;5.32;4.50;;;12.90;99.90;;;;;;5103804;27;21009;-83
2022/01/19 11:15:19;;;;;;;6.65;4.70;;;12.90;99.90;;;;;;5109925;27;20870;-82
2022/01/19 11:17:48;;;;;;;7.20;3.97;;;12.90;99.90;;;;;;5103855;27;20279;-83
2022/01/19 11:20:19;;;;;;;3.87;3.57;;;12.90;99.90;;;;;;5103763;27;20468;-84
2022/01/19 11:23:07;;;;;;;4.20;3.33;;;13.10;99.90;;;;;;5105472;27;20483;-83
2022/01/19 11:25:48;;;;;;;7.57;3.87;;;13.30;99.90;;;;;;5100402;27;20480;-83
2022/01/19 11:28:28;;;;;;;3.17;2.87;;;13.40;99.90;;;;;;5105165;27;21059;-83
2022/01/19 11:30:57;;;;;;;6.30;3.13;;;13.60;99.90;;;;;;5113391;27;20463;-82
2022/01/19 11:33:27;;;;;;;5.20;3.50;;;13.80;99.90;;;;;;5104294;27;20460;-82
2022/01/19 11:35:57;;;;;;;3.60;3.30;;;13.90;99.90;;;;;;5113887;28;20680;-82
2022/01/19 11:38:41;;;;;;;4.70;3.73;;;14.00;99.90;;;;;;5109107;27;20449;-82
2022/01/19 11:41:48;;;;;;;3.30;2.73;;;14.00;99.90;;;;;;5107382;27;20451;-81
2022/01/19 11:44:21;;;;;;;4.77;3.40;;;13.70;99.90;;;;;;5092913;27;20860;-82
2022/01/19 11:46:53;;;;;;;4.40;3.10;;;13.40;99.90;;;;;;5116773;27;20466;-83
2022/01/19 11:49:45;;;;;;;4.77;3.13;;;13.20;99.90;;;;;;5115554;27;20470;-81
2022/01/19 11:52:15;;;;;;;4.27;3.23;;;13.20;99.90;;;;;;5113801;28;21331;-82
2022/01/19 11:54:44;;;;;;;6.13;3.37;;;13.20;99.90;;;;;;5111639;28;20481;-82
2022/01/19 11:57:14;;;;;;;5.40;3.27;;;13.20;99.90;;;;;;5111486;28;20455;-83
2022/01/19 12:00:06;;;;;;;4.87;3.27;;;13.10;99.90;;;;;;5107513;28;20774;-81
2022/01/19 12:02:40;;;;;;;6.50;4.20;;;13.10;99.90;;;;;;5106695;28;20457;-82
2022/01/19 12:05:32;;;;;;;5.67;3.50;;;12.90;98.30;;;;;;5100818;28;20622;-79
2022/01/19 12:08:02;;;;;;;3.93;3.13;;;12.60;97.40;;;;;;5097123;27;20460;-78
2022/01/19 12:10:47;;;;;;;4.68;4.25;;;12.40;97.40;;;;;;5107042;27;20450;-80
2022/01/19 12:13:55;;;;;;;7.30;4.90;;;12.30;97.80;;;;;;5105071;27;20449;-80
2022/01/19 12:16:49;;;;;;;7.80;4.00;;;12.40;97.30;;;;;;5110163;27;20221;-81
2022/01/19 12:19:23;;;;;;;4.80;3.80;;;12.30;97.30;;;;;;5110158;28;20433;-82
2022/01/19 12:21:55;;;;;;;6.67;4.63;;;12.30;97.20;;;;;;5104466;28;20474;-79
2022/01/19 12:24:41;;;;;;;4.10;3.27;;;12.30;97.20;;;;;;5104775;28;20442;-82
2022/01/19 12:27:27;;;;;;;5.33;4.10;;;12.40;99.20;;;;;;5102775;27;21022;-80
2022/01/19 12:30:10;;;;;;;5.80;4.30;;;12.50;99.90;;;;;;5098686;28;20450;-81
2022/01/19 12:32:45;;;;;;;4.00;3.60;;;12.60;99.90;;;;;;5100386;28;20499;-81
2022/01/19 12:35:20;;;;;;;6.20;3.90;;;12.70;99.90;;;;;;5103307;28;20444;-80
2022/01/19 12:37:51;;;;;;;7.70;5.93;;;12.70;99.90;;;;;;5111664;27;20526;-81
2022/01/19 12:40:41;;;;;;;5.37;4.30;;;12.70;99.90;;;;;;5104478;27;20465;-81
2022/01/19 12:43:14;;;;;;;8.10;4.17;;;12.70;99.90;;;;;;5108367;28;20514;-81
2022/01/19 12:45:49;;;;;;;5.83;4.83;;;12.70;99.90;;;;;;5106703;27;20528;-81
2022/01/19 12:48:34;;;;;;;7.03;4.60;;;12.80;99.90;;;;;;5107723;27;20835;-82
2022/01/19 12:51:02;;;;;;;6.07;4.63;;;12.80;99.90;;;;;;5106702;28;20453;-81
2022/01/19 12:53:30;;;;;;;7.67;5.00;;;12.80;99.90;;;;;;5113830;27;20457;-79
2022/01/19 12:56:01;;;;;;;6.83;4.60;;;12.70;99.90;;;;;;5111255;27;20480;-82
2022/01/19 12:58:33;;;;;;;5.77;4.73;;;12.70;99.90;;;;;;5109225;27;20479;-81
2022/01/19 13:01:05;;;;;;;4.90;4.20;;;12.70;99.90;;;;;;5105120;28;20516;-81
2022/01/19 13:03:36;;;;;;;5.53;4.30;;;12.70;99.90;;;;;;5101935;27;20448;-81
2022/01/19 13:06:08;;;;;;;8.33;4.50;;;12.70;99.90;;;;;;5105202;27;20461;-81
2022/01/19 13:09:02;;;;;;;4.47;3.80;;;12.70;99.90;;;;;;5109963;28;20469;-82
2022/01/19 13:11:38;;;;;;;4.83;3.70;;;12.70;99.90;;;;;;5110199;27;20470;-81
2022/01/19 13:14:13;;;;;;;6.03;3.70;;;12.80;99.90;;;;;;5103508;28;20484;-80
2022/01/19 13:16:46;;;;;;;5.50;4.43;;;12.80;99.90;;;;;;5101788;27;20216;-82
2022/01/19 13:19:18;;;;;;;4.67;3.63;;;12.80;99.90;;;;;;5108700;28;20470;-82
2022/01/19 13:21:49;;;;;;;4.27;3.90;;;12.70;99.90;;;;;;5104699;28;20519;-82
2022/01/19 13:24:26;;;;;;;4.63;3.30;;;12.70;99.90;;;;;;5104690;28;20813;-82
2022/01/19 13:26:58;;;;;;;3.80;3.07;;;12.60;99.90;;;;;;5104700;28;20944;-80
2022/01/19 13:29:31;;;;;;;3.13;2.70;;;12.40;99.40;;;;;;5106715;28;20461;-81
2022/01/19 13:32:08;;;;;;;5.10;3.17;;;12.40;99.40;;;;;;5109103;28;20452;-82
2022/01/19 13:34:51;;;;;;;3.00;2.70;;;12.40;99.70;;;;;;5104731;28;21007;-82
2022/01/19 13:37:20;;;;;;;6.90;3.30;;;12.30;99.40;;;;;;5108544;28;20964;-82
2022/01/19 13:39:57;;;;;;;5.07;3.63;;;12.20;98.10;;;;;;5104512;28;21034;-82
2022/01/19 13:42:35;;;;;;;6.30;3.17;;;12.10;99.90;;;;;;5111683;28;20459;-82
2022/01/19 13:45:10;;;;;;;4.27;3.17;;;12.00;97.50;;;;;;5098642;28;20485;-83
2022/01/19 13:47:56;;;;;;;4.50;2.90;;;12.00;97.10;;;;;;5110472;28;20445;-82
2022/01/19 13:50:26;;;;;;;5.63;3.40;;;12.10;97.90;;;;;;5101889;28;20444;-81
2022/01/19 13:52:54;;;;;;;7.13;3.00;;;12.00;97.50;;;;;;5104712;28;20959;-80
2022/01/19 13:55:24;;;;;;;4.20;3.60;;;11.70;93.50;;;;;;5102108;28;20467;-77
2022/01/19 13:58:03;;;;;;;4.37;3.30;;;11.30;90.50;;;;;;5106153;28;20471;-80
2022/01/19 14:00:33;;;;;;;4.60;3.10;;;11.00;84.00;;;;;;5099174;28;20906;-80
2022/01/19 14:03:04;;;;;;;4.23;2.77;;;10.80;85.90;;;;;;5102541;28;20947;-79
2022/01/19 14:05:42;;;;;;;4.20;2.90;;;10.30;77.50;;;;;;5103234;28;20480;-73
2022/01/19 14:08:11;;;;;;;5.20;2.90;;;10.30;77.70;;;;;;5108048;28;20444;-80
2022/01/19 14:10:46;;;;;;;5.47;3.27;;;10.30;83.10;;;;;;5103941;28;22220;-80
2022/01/19 14:13:27;;;;;;;6.03;4.40;;;10.60;85.50;;;;;;5114954;28;20448;-81
2022/01/19 14:15:58;;;;;;;5.23;3.60;;;10.40;85.50;;;;;;5101135;28;20604;-80
2022/01/19 14:18:27;;;;;;;7.80;3.70;;;10.40;87.90;;;;;;5104487;28;20468;-80
2022/01/19 14:21:06;;;;;;;3.63;2.80;;;10.40;87.70;;;;;;5092287;28;20483;-80
2022/01/19 14:23:35;;;;;;;3.97;3.47;;;10.30;84.80;;;;;;5104937;28;20440;-78
2022/01/19 14:26:12;;;;;;;6.27;3.60;;;10.00;77.50;;;;;;5093729;27;20887;-80
2022/01/19 14:28:41;;;;;;;5.17;3.67;;;9.70;75.80;;;;;;5104929;28;20550;-80
2022/01/19 14:31:14;;;;;;;5.60;3.83;;;9.70;78.50;;;;;;5103064;27;20453;-81